Time;durP1;ratioP1;P1;durP2;ratioP2;P2;SDS_P1;SDS_P2;PMS_P1;PMS_P2;Temp;Humidity;BMP_temperature;BMP_pressure;BME280_temperature;BME280_humidity;BME280_pressure;Samples;Min_cycle;Max_cycle;Signal;HPM_P1;HPM_P2
2022/09/07 00:01:24;;;;;;;11.70;6.38;;;2.80;99.90;;;2.96;100.00;99805.09;5060293;27;129391;-68
2022/09/07 00:03:55;;;;;;;12.32;6.50;;;2.70;99.90;;;2.97;100.00;99801.34;5062591;27;119961;-67
2022/09/07 00:06:25;;;;;;;15.07;6.63;;;2.60;99.90;;;2.93;100.00;99804.78;5066795;27;119430;-66
2022/09/07 00:08:53;;;;;;;11.93;6.40;;;2.60;99.90;;;2.87;100.00;99799.38;5065059;27;129933;-66
2022/09/07 00:11:23;;;;;;;10.43;6.03;;;2.60;99.90;;;2.84;100.00;99797.19;5066556;27;129556;-67
2022/09/07 00:13:52;;;;;;;10.82;6.20;;;2.60;99.90;;;2.81;100.00;99792.34;5051592;27;118454;-67
2022/09/07 00:16:23;;;;;;;11.40;6.18;;;2.60;99.90;;;2.80;100.00;99790.72;5066934;27;119515;-66
2022/09/07 00:18:55;;;;;;;11.85;6.35;;;2.60;99.90;;;2.82;100.00;99785.09;5051180;27;130417;-66
2022/09/07 00:21:24;;;;;;;14.60;6.88;;;2.50;99.90;;;2.80;100.00;99790.72;5066458;27;129784;-66
2022/09/07 00:23:53;;;;;;;14.75;7.28;;;2.50;99.90;;;2.81;100.00;99786.19;5066845;27;120056;-66
2022/09/07 00:26:25;;;;;;;15.73;7.40;;;2.50;99.90;;;2.80;100.00;99784.56;5067032;27;119646;-65
2022/09/07 00:28:58;;;;;;;11.65;6.35;;;2.50;99.90;;;2.80;100.00;99780.00;5066407;27;129983;-67
2022/09/07 00:31:29;;;;;;;11.13;6.43;;;2.50;99.90;;;2.81;100.00;99781.63;5066446;27;129614;-68
2022/09/07 00:34:00;;;;;;;10.85;6.25;;;2.50;99.90;;;2.79;100.00;99778.38;5065393;27;122322;-67
2022/09/07 00:36:30;;;;;;;12.93;6.40;;;2.50;99.90;;;2.78;100.00;99782.13;5066421;27;122006;-67
2022/09/07 00:38:58;;;;;;;13.00;6.63;;;2.40;99.90;;;2.78;100.00;99782.13;5066244;27;130564;-67
2022/09/07 00:41:29;;;;;;;13.23;7.18;;;2.40;99.90;;;2.77;100.00;99775.13;5051170;27;129171;-67
2022/09/07 00:44:15;;;;;;;10.45;6.07;;;2.40;99.90;;;2.77;100.00;99775.13;5066614;27;119464;-67
2022/09/07 00:46:45;;;;;;;13.05;7.05;;;2.40;99.90;;;2.72;100.00;99776.97;5050952;27;118771;-67
2022/09/07 00:49:18;;;;;;;12.80;6.88;;;2.40;99.90;;;2.70;100.00;99775.34;5066230;27;129902;-67
2022/09/07 00:51:50;;;;;;;12.50;6.00;;;2.40;99.90;;;2.67;100.00;99769.69;5066346;27;129371;-67
2022/09/07 00:54:23;;;;;;;12.90;7.55;;;2.40;99.90;;;2.66;100.00;99770.75;5051301;27;119304;-68
2022/09/07 00:56:55;;;;;;;13.18;6.60;;;2.40;99.90;;;2.65;100.00;99766.44;5066142;27;119941;-66
2022/09/07 00:59:35;;;;;;;12.93;5.95;;;2.40;99.90;;;2.66;100.00;99762.69;5064601;27;129911;-67
2022/09/07 01:02:04;;;;;;;12.38;6.10;;;2.40;99.90;;;2.65;100.00;99750.34;5065971;27;129381;-67
2022/09/07 01:04:33;;;;;;;10.63;6.63;;;2.40;99.90;;;2.61;100.00;99762.66;5067340;27;119630;-67
2022/09/07 01:07:03;;;;;;;14.90;7.03;;;2.40;99.90;;;2.56;100.00;99757.25;5066197;27;119304;-66
2022/09/07 01:09:32;;;;;;;14.73;6.82;;;2.50;99.90;;;2.49;100.00;99758.25;5051058;27;130196;-66
2022/09/07 01:12:04;;;;;;;12.65;6.40;;;2.40;99.90;;;2.37;100.00;99754.91;5065898;27;129523;-66
2022/09/07 01:14:40;;;;;;;12.70;6.45;;;2.30;99.90;;;2.35;100.00;99757.00;5066068;27;119700;-67
2022/09/07 01:17:30;;;;;;;13.02;6.47;;;2.30;99.90;;;2.37;100.00;99757.59;5062058;27;119702;-66
2022/09/07 01:20:51;;;;;;;10.77;6.32;;;2.20;99.90;;;2.32;100.00;99752.16;5062324;27;130262;-65
2022/09/07 01:24:25;;;;;;;12.23;6.57;;;2.20;99.90;;;2.30;100.00;99760.44;5005144;27;128901;-66
2022/09/07 01:27:52;;;;;;;11.95;6.78;;;2.20;99.90;;;2.28;100.00;99756.41;5017170;27;122415;-66
2022/09/07 01:30:23;;;;;;;10.60;5.97;;;2.10;99.90;;;2.30;100.00;99749.72;5062517;27;122496;-66
2022/09/07 01:33:23;;;;;;;11.77;6.70;;;2.10;99.90;;;2.31;100.00;99746.00;5061977;27;129500;-66
2022/09/07 01:36:05;;;;;;;11.57;6.45;;;2.10;99.90;;;2.30;100.00;99744.38;5062055;27;129812;-67
2022/09/07 01:38:40;;;;;;;13.70;6.57;;;2.20;99.90;;;2.30;100.00;99738.22;5062478;27;119546;-66
2022/09/07 01:41:16;;;;;;;10.90;6.38;;;2.10;99.90;;;2.27;100.00;99741.38;5062435;27;120433;-67
2022/09/07 01:43:54;;;;;;;13.20;6.97;;;2.20;99.90;;;2.26;100.00;99737.06;5061804;27;130286;-67
2022/09/07 01:46:28;;;;;;;15.95;6.65;;;2.10;99.90;;;2.29;100.00;99732.06;5062148;27;129734;-66
2022/09/07 01:49:03;;;;;;;14.82;6.47;;;2.00;99.90;;;2.28;100.00;99732.31;5062327;27;119876;-66
2022/09/07 01:51:37;;;;;;;10.52;6.18;;;2.10;99.90;;;2.28;100.00;99734.97;5043959;27;119550;-67
2022/09/07 01:54:12;;;;;;;15.82;8.95;;;2.10;99.90;;;2.27;100.00;99733.34;5045409;27;129905;-66
2022/09/07 01:56:45;;;;;;;12.27;6.68;;;2.10;99.90;;;2.26;100.00;99727.19;5061643;27;129528;-66
2022/09/07 01:59:22;;;;;;;12.48;6.85;;;2.10;99.90;;;2.24;100.00;99723.13;5061988;27;119904;-69
2022/09/07 02:01:56;;;;;;;10.43;6.03;;;2.10;99.90;;;2.26;100.00;99716.47;5062103;27;119849;-65
2022/09/07 02:04:31;;;;;;;10.80;6.45;;;2.00;99.90;;;2.27;100.00;99722.63;5062436;27;129941;-68
2022/09/07 02:07:09;;;;;;;10.65;5.70;;;2.00;99.90;;;2.23;100.00;99726.88;5046522;27;128669;-67
2022/09/07 02:09:47;;;;;;;9.43;6.00;;;2.10;99.90;;;2.21;100.00;99719.09;5046899;27;119886;-67
2022/09/07 02:12:22;;;;;;;13.02;6.40;;;2.00;99.90;;;2.21;100.00;99712.94;5062432;27;119214;-68
2022/09/07 02:14:58;;;;;;;13.27;6.03;;;2.10;99.90;;;2.21;100.00;99707.56;5061606;27;129762;-67
2022/09/07 02:17:33;;;;;;;11.20;6.15;;;2.10;99.90;;;2.18;100.00;99708.06;5046283;27;128421;-67
2022/09/07 02:20:11;;;;;;;10.15;5.68;;;2.10;99.90;;;2.18;100.00;99705.41;5045381;27;121033;-67
2022/09/07 02:22:47;;;;;;;10.35;6.25;;;2.00;99.90;;;2.17;100.00;99701.91;5061704;27;121770;-67
2022/09/07 02:25:22;;;;;;;13.33;6.20;;;2.00;99.90;;;2.15;100.00;99704.84;5061315;27;129821;-68
2022/09/07 02:27:58;;;;;;;9.87;5.67;;;1.90;99.90;;;2.14;100.00;99703.22;5061476;27;129982;-67
2022/09/07 02:30:28;;;;;;;11.18;5.28;;;1.90;99.90;;;2.14;100.00;99711.25;5061752;27;120123;-68
2022/09/07 02:32:57;;;;;;;9.85;5.13;;;1.90;99.90;;;2.12;100.00;99704.50;5061537;27;120044;-67
2022/09/07 02:35:26;;;;;;;9.82;5.47;;;1.90;99.90;;;2.10;100.00;99702.13;5046349;27;130263;-68
2022/09/07 02:37:56;;;;;;;9.77;5.32;;;1.90;99.90;;;2.09;100.00;99695.13;5061291;27;130023;-67
2022/09/07 02:40:25;;;;;;;11.02;5.60;;;1.80;99.90;;;2.06;100.00;99701.00;5061437;27;120038;-67
2022/09/07 02:42:54;;;;;;;10.13;5.35;;;1.80;99.90;;;2.03;100.00;99700.69;5060980;27;119513;-65
2022/09/07 02:45:23;;;;;;;8.93;5.20;;;1.80;99.90;;;2.03;100.00;99696.13;5059491;27;129952;-65
2022/09/07 02:48:12;;;;;;;9.35;5.13;;;1.80;99.90;;;2.03;100.00;99698.81;5060971;27;129026;-66
2022/09/07 02:50:54;;;;;;;13.68;5.78;;;1.80;99.90;;;1.96;100.00;99700.84;5046377;27;119247;-66
2022/09/07 02:53:52;;;;;;;9.65;5.35;;;1.80;99.90;;;1.92;100.00;99702.44;5061019;27;119438;-66
2022/09/07 02:56:44;;;;;;;11.10;5.30;;;1.80;99.90;;;1.90;100.00;99696.50;5060937;27;130162;-67
2022/09/07 02:59:36;;;;;;;10.35;5.97;;;1.90;99.90;;;1.86;100.00;99700.75;5060733;27;129978;-66
2022/09/07 03:02:12;;;;;;;8.18;5.07;;;1.80;99.90;;;1.87;100.00;99700.50;5060944;27;120208;-66
2022/09/07 03:04:51;;;;;;;10.38;5.15;;;1.70;99.90;;;1.86;100.00;99690.84;5062413;27;119302;-66
2022/09/07 03:07:24;;;;;;;10.15;5.22;;;1.70;99.90;;;1.87;100.00;99691.63;5060490;27;129976;-67
2022/09/07 03:09:56;;;;;;;11.07;5.85;;;1.70;99.90;;;1.87;100.00;99697.00;5060730;27;129422;-67
2022/09/07 03:12:25;;;;;;;10.98;5.95;;;1.70;99.90;;;1.87;100.00;99684.44;5059501;27;122112;-67
2022/09/07 03:14:53;;;;;;;8.70;5.05;;;1.70;99.90;;;1.88;100.00;99686.03;5060684;27;121805;-67
2022/09/07 03:17:22;;;;;;;10.73;5.55;;;1.70;99.90;;;1.87;100.00;99686.28;5060394;27;130404;-67
2022/09/07 03:19:52;;;;;;;8.95;5.00;;;1.70;99.90;;;1.85;100.00;99688.41;5060838;27;129669;-67
2022/09/07 03:22:21;;;;;;;9.80;5.28;;;1.70;99.90;;;1.84;100.00;99686.78;5060272;27;119767;-66
2022/09/07 03:24:49;;;;;;;8.90;5.63;;;1.70;99.90;;;1.86;100.00;99684.69;5060767;27;119578;-66
2022/09/07 03:27:18;;;;;;;9.48;4.97;;;1.70;99.90;;;1.85;100.00;99683.06;5060294;27;130567;-67
2022/09/07 03:29:46;;;;;;;10.02;5.20;;;1.70;99.90;;;1.86;100.00;99684.69;5060567;27;129467;-67
2022/09/07 03:32:15;;;;;;;9.95;6.10;;;1.70;99.90;;;1.83;100.00;99679.84;5060489;27;119683;-67
2022/09/07 03:34:44;;;;;;;12.75;6.45;;;1.70;99.90;;;1.85;100.00;99680.38;5060475;27;119597;-66
2022/09/07 03:37:14;;;;;;;10.95;5.85;;;1.70;99.90;;;1.87;100.00;99680.94;5059225;27;130366;-68
2022/09/07 03:39:42;;;;;;;10.95;5.65;;;1.70;99.90;;;1.91;100.00;99676.72;5059356;27;129490;-66
2022/09/07 03:42:11;;;;;;;9.27;6.00;;;1.70;99.90;;;1.91;100.00;99676.72;5060638;27;119836;-66
2022/09/07 03:44:39;;;;;;;11.90;6.30;;;1.70;99.90;;;1.91;100.00;99682.06;5045361;27;118475;-65
2022/09/07 03:47:08;;;;;;;9.70;5.93;;;1.70;99.90;;;1.94;100.00;99676.22;5060095;27;130010;-67
2022/09/07 03:49:37;;;;;;;13.27;5.70;;;1.70;99.90;;;2.02;100.00;99675.75;5060028;27;129399;-66
2022/09/07 03:52:05;;;;;;;11.25;5.93;;;1.70;99.90;;;2.05;100.00;99672.59;5045073;27;119131;-67
2022/09/07 03:54:35;;;;;;;12.80;6.22;;;1.80;99.90;;;2.09;100.00;99689.78;5060925;27;119592;-67
2022/09/07 03:57:04;;;;;;;22.10;6.75;;;1.90;99.90;;;2.20;100.00;99682.66;5060025;27;130500;-67
2022/09/07 03:59:33;;;;;;;19.45;7.57;;;1.90;99.90;;;2.28;100.00;99681.41;5041703;27;129753;-67
2022/09/07 04:02:02;;;;;;;13.15;5.35;;;2.00;99.90;;;2.40;100.00;99670.53;5058858;27;122090;-67
2022/09/07 04:04:31;;;;;;;15.07;6.78;;;2.00;99.90;;;2.45;100.00;99671.41;5060956;27;122626;-67
2022/09/07 04:07:00;;;;;;;16.02;6.43;;;2.10;99.90;;;2.51;100.00;99678.44;5041545;27;129903;-67
2022/09/07 04:09:29;;;;;;;14.77;6.88;;;2.20;99.90;;;2.62;100.00;99675.84;5059929;27;130078;-69
2022/09/07 04:12:00;;;;;;;12.07;6.50;;;2.30;99.90;;;2.71;100.00;99676.97;5060060;27;119838;-68
2022/09/07 04:14:29;;;;;;;11.68;6.22;;;2.40;99.90;;;2.83;100.00;99672.25;5060399;27;119759;-68
2022/09/07 04:16:58;;;;;;;12.13;6.43;;;2.50;99.90;;;2.98;100.00;99668.09;5059610;27;130450;-66
2022/09/07 04:19:27;;;;;;;11.77;7.43;;;2.60;99.90;;;3.08;100.00;99684.25;5041820;27;129510;-67
2022/09/07 04:21:55;;;;;;;12.38;6.70;;;2.70;99.90;;;3.19;100.00;99685.94;5060003;27;119794;-67
2022/09/07 04:24:24;;;;;;;9.95;6.13;;;2.80;99.90;;;3.39;100.00;99679.09;5059920;27;119923;-68
2022/09/07 04:26:53;;;;;;;11.43;6.15;;;2.90;99.90;;;3.54;100.00;99681.88;5058404;27;129987;-67
2022/09/07 04:29:23;;;;;;;14.48;6.68;;;3.10;99.90;;;3.65;100.00;99681.94;5059405;27;129375;-67
2022/09/07 04:31:52;;;;;;;16.08;5.65;;;3.20;99.90;;;3.78;100.00;99681.44;5059787;27;119885;-67
2022/09/07 04:34:21;;;;;;;15.05;5.88;;;3.30;99.90;;;3.95;100.00;99682.03;5041676;27;120179;-67
2022/09/07 04:36:49;;;;;;;13.20;5.93;;;3.50;99.90;;;4.15;100.00;99669.75;5059557;27;130299;-67
2022/09/07 04:39:18;;;;;;;10.93;5.90;;;3.70;99.90;;;4.39;100.00;99680.81;5059162;27;130256;-67
2022/09/07 04:41:47;;;;;;;11.55;5.60;;;3.90;99.90;;;4.56;100.00;99677.91;5059536;27;119918;-66
2022/09/07 04:44:15;;;;;;;10.77;5.65;;;4.10;99.90;;;4.80;99.99;99680.88;5060070;27;119997;-66
2022/09/07 04:46:46;;;;;;;11.63;5.32;;;4.30;99.90;;;5.01;98.64;99675.50;5059316;27;130246;-68
2022/09/07 04:49:14;;;;;;;11.48;5.80;;;4.50;99.90;;;5.16;100.00;99667.41;5059122;27;129318;-67
2022/09/07 04:51:44;;;;;;;11.18;5.88;;;4.70;99.90;;;5.30;98.83;99678.44;5058950;27;122197;-67
2022/09/07 04:54:12;;;;;;;11.02;4.55;;;4.80;99.90;;;5.40;98.71;99675.69;5062803;27;122097;-68
2022/09/07 04:56:41;;;;;;;9.82;5.28;;;4.90;99.90;;;5.61;98.28;99683.75;5062654;27;129852;-67
2022/09/07 04:59:10;;;;;;;9.18;4.82;;;5.20;99.90;;;5.81;97.17;99677.47;5061174;27;129948;-67
2022/09/07 05:01:38;;;;;;;8.88;4.72;;;5.40;99.90;;;6.06;96.27;99668.50;5047731;27;118740;-67
2022/09/07 05:04:09;;;;;;;10.68;4.40;;;5.70;99.90;;;6.25;95.40;99674.06;5063125;27;119918;-68
2022/09/07 05:06:38;;;;;;;8.73;5.03;;;5.90;99.50;;;6.48;94.21;99675.28;5062583;27;130049;-67
2022/09/07 05:09:07;;;;;;;10.30;4.93;;;6.10;91.70;;;6.69;92.63;99674.34;5062934;27;129427;-68
2022/09/07 05:11:36;;;;;;;9.90;4.70;;;6.20;87.00;;;6.92;91.56;99678.19;5062702;27;120626;-68
2022/09/07 05:14:04;;;;;;;7.93;4.15;;;6.40;70.90;;;7.07;91.21;99669.94;5062815;27;119646;-67
2022/09/07 05:16:33;;;;;;;9.02;5.47;;;6.60;60.60;;;7.24;90.40;99674.13;5043372;27;130123;-67
2022/09/07 05:19:05;;;;;;;10.00;4.72;;;6.80;53.60;;;7.48;89.57;99669.56;5062233;27;130043;-68
2022/09/07 05:21:35;;;;;;;11.00;5.15;;;7.00;41.10;;;7.68;88.20;99678.53;5062738;27;119461;-68
2022/09/07 05:24:05;;;;;;;9.82;4.80;;;7.10;31.40;;;7.88;87.88;99672.06;5062805;27;119340;-67
2022/09/07 05:26:38;;;;;;;10.82;4.32;;;7.30;27.80;;;8.13;86.49;99667.44;5062254;27;131153;-68
2022/09/07 05:29:07;;;;;;;8.50;3.80;;;7.60;23.50;;;8.38;85.30;99658.16;5062351;27;129616;-70
2022/09/07 05:31:35;;;;;;;9.10;4.50;;;7.80;14.50;;;8.65;84.96;99671.06;5062478;27;120035;-69
2022/09/07 05:34:04;;;;;;;8.07;4.13;;;8.00;8.60;;;8.88;83.46;99668.53;5062967;27;119758;-69
2022/09/07 05:36:35;;;;;;;16.13;4.72;;;8.20;3.90;;;9.10;83.01;99662.47;5061885;27;131205;-69
2022/09/07 05:39:06;;;;;;;12.52;4.28;;;8.40;1.00;;;9.31;81.86;99663.72;5062420;27;129940;-68
2022/09/07 05:41:35;;;;;;;10.18;4.50;;;8.60;1.00;;;9.51;81.19;99651.69;5061363;27;122193;-68
2022/09/07 05:44:05;;;;;;;19.83;4.63;;;8.90;1.00;;;9.81;80.03;99654.13;5062212;27;121708;-69
2022/09/07 05:46:33;;;;;;;17.77;4.22;;;9.10;1.00;;;9.99;77.86;99650.47;5061808;27;131136;-70
2022/09/07 05:49:02;;;;;;;16.35;4.03;;;9.30;1.00;;;10.18;76.62;99652.25;5061959;27;129386;-70
2022/09/07 05:51:31;;;;;;;13.15;4.45;;;9.40;1.00;;;10.28;75.70;99643.88;5062670;27;119743;-69
2022/09/07 05:54:01;;;;;;;11.73;3.95;;;9.60;1.00;;;10.54;73.49;99644.13;5047248;27;118994;-69
2022/09/07 05:56:29;;;;;;;11.95;3.13;;;9.80;1.00;;;10.66;71.88;99640.88;5046839;27;129185;-70
2022/09/07 05:58:58;;;;;;;22.58;3.35;;;9.80;1.00;;;10.79;71.29;99634.56;5062071;27;130595;-69
2022/09/07 06:01:27;;;;;;;9.88;3.90;;;9.90;1.00;;;10.95;70.35;99636.91;5061919;27;119460;-69
2022/09/07 06:03:56;;;;;;;9.30;3.58;;;10.10;1.00;;;11.10;69.00;99641.94;5047020;27;118961;-68
2022/09/07 06:06:26;;;;;;;5.75;2.72;;;10.20;1.00;;;11.20;68.06;99648.22;5064436;27;105517;-65
2022/09/07 06:08:56;;;;;;;9.68;2.88;;;10.40;1.00;;;11.37;67.43;99642.84;5061670;27;129802;-70
2022/09/07 06:11:27;;;;;;;8.20;2.83;;;10.50;1.00;;;11.53;67.21;99645.97;5046864;27;118537;-70
2022/09/07 06:13:56;;;;;;;11.85;3.08;;;10.60;1.00;;;11.66;65.85;99649.69;5043549;27;119124;-67
2022/09/07 06:16:25;;;;;;;6.68;2.63;;;10.70;1.00;;;11.65;64.85;99648.09;5061679;27;129880;-69
2022/09/07 06:18:53;;;;;;;8.82;3.03;;;10.70;1.00;;;11.80;64.70;99649.59;5061347;27;130020;-69
2022/09/07 06:21:24;;;;;;;7.43;3.25;;;10.80;1.00;;;11.89;65.58;99647.69;5061769;27;120489;-69
2022/09/07 06:23:52;;;;;;;8.35;2.78;;;10.90;1.00;;;12.08;64.28;99650.16;5047375;27;118139;-71
2022/09/07 06:26:21;;;;;;;7.78;2.35;;;11.10;1.00;;;12.16;63.18;99646.63;5061391;27;130633;-69
2022/09/07 06:28:51;;;;;;;8.93;2.90;;;11.00;1.00;;;12.28;63.51;99650.63;5061231;27;130244;-70
2022/09/07 06:31:23;;;;;;;16.75;2.97;;;11.20;1.00;;;12.39;63.71;99649.22;5060044;27;122250;-69
2022/09/07 06:33:52;;;;;;;6.75;2.35;;;11.50;1.00;;;12.56;61.89;99638.31;5061522;27;121920;-71
2022/09/07 06:36:23;;;;;;;9.75;2.72;;;11.50;1.00;;;12.73;61.86;99639.41;5063324;27;129569;-71
2022/09/07 06:38:53;;;;;;;12.02;3.05;;;11.60;1.00;;;12.88;60.94;99644.38;5061157;27;129879;-70
2022/09/07 06:41:24;;;;;;;8.43;2.72;;;11.80;1.00;;;12.87;61.33;99640.06;5061620;27;120384;-67
2022/09/07 06:43:57;;;;;;;6.13;2.35;;;11.80;1.00;;;13.16;60.87;99649.44;5061504;27;119321;-69
2022/09/07 06:46:26;;;;;;;5.18;1.95;;;12.10;1.00;;;13.30;59.49;99644.56;5061245;27;129455;-69
2022/09/07 06:48:55;;;;;;;10.77;2.53;;;12.20;1.00;;;13.42;59.85;99651.31;5061496;27;129366;-70
2022/09/07 06:51:26;;;;;;;6.93;2.22;;;12.30;1.00;;;13.57;58.79;99648.06;5061182;27;119604;-71
2022/09/07 06:53:57;;;;;;;6.35;2.10;;;12.40;1.00;;;13.56;57.73;99649.16;5061114;27;119852;-69
2022/09/07 06:56:27;;;;;;;9.90;2.40;;;12.40;1.00;;;13.70;57.25;99639.94;5041378;27;130497;-71
2022/09/07 06:58:58;;;;;;;7.28;2.10;;;12.50;1.00;;;13.74;57.09;99635.44;5045742;27;128648;-67
2022/09/07 07:01:27;;;;;;;7.57;1.92;;;12.80;1.00;;;13.75;54.99;99640.56;5061381;27;119992;-67
2022/09/07 07:03:56;;;;;;;7.85;2.00;;;12.80;1.00;;;13.81;55.16;99633.78;5061199;27;119878;-70
2022/09/07 07:06:32;;;;;;;9.50;2.40;;;12.80;1.00;;;13.82;54.69;99626.41;5060612;27;130420;-69
2022/09/07 07:09:01;;;;;;;8.70;2.03;;;12.80;1.00;;;13.82;54.06;99626.41;5060918;27;129646;-67
2022/09/07 07:11:30;;;;;;;8.13;3.97;;;12.80;1.00;;;13.93;54.73;99637.72;5042676;27;119488;-67
2022/09/07 07:14:00;;;;;;;14.57;5.18;;;13.00;1.00;;;14.15;53.69;99628.47;5060104;27;119347;-68
2022/09/07 07:16:29;;;;;;;9.90;2.13;;;13.20;1.00;;;14.19;52.28;99638.38;5045414;27;129046;-72
2022/09/07 07:18:58;;;;;;;4.45;2.10;;;13.20;1.00;;;14.32;52.47;99638.44;5060477;27;130108;-70
2022/09/07 07:21:26;;;;;;;6.95;2.55;;;13.20;1.00;;;14.43;51.86;99627.91;5059571;27;121647;-70
2022/09/07 07:23:55;;;;;;;12.10;2.17;;;13.20;1.00;;;14.51;51.33;99630.56;5060629;27;121967;-68
2022/09/07 07:26:26;;;;;;;17.40;7.38;;;13.20;1.00;;;14.47;51.63;99637.03;5060330;27;130461;-66
2022/09/07 07:28:58;;;;;;;7.55;2.15;;;13.50;1.00;;;14.68;50.93;99618.72;5060305;27;130024;-69
2022/09/07 07:31:28;;;;;;;21.55;8.75;;;13.50;1.00;;;14.68;50.88;99621.47;5046060;27;119151;-68
2022/09/07 07:33:57;;;;;;;11.80;2.75;;;13.60;1.00;;;14.76;51.02;99618.97;5045712;27;119007;-66
2022/09/07 07:36:27;;;;;;;12.13;2.80;;;13.40;1.00;;;14.81;50.43;99632.44;5062895;27;130768;-68
2022/09/07 07:38:57;;;;;;;11.02;1.92;;;13.50;1.00;;;14.46;49.99;99646.34;5060508;27;129471;-74
2022/09/07 07:41:30;;;;;;;6.95;1.90;;;13.20;1.00;;;14.54;50.48;99629.13;5060428;27;119504;-67
2022/09/07 07:44:02;;;;;;;4.95;1.88;;;13.30;1.00;;;14.49;50.05;99642.94;5060637;27;119436;-66
2022/09/07 07:46:32;;;;;;;10.40;2.42;;;13.40;1.00;;;14.71;49.72;99633.66;5058979;27;129726;-68
2022/09/07 07:49:01;;;;;;;4.65;1.95;;;13.50;1.00;;;14.13;51.05;99641.63;5063472;27;129567;-68
2022/09/07 07:51:30;;;;;;;6.22;2.08;;;12.90;1.00;;;14.28;51.02;99632.84;5060394;27;120051;-67
2022/09/07 07:53:58;;;;;;;7.15;2.03;;;13.00;1.00;;;14.56;50.70;99633.09;5060479;27;119356;-66
2022/09/07 07:56:29;;;;;;;8.65;1.90;;;13.40;1.00;;;14.89;49.07;99639.72;5060150;27;130014;-65
2022/09/07 07:58:58;;;;;;;15.48;5.40;;;13.80;1.00;;;15.02;49.09;99638.66;5062395;27;129453;-67
2022/09/07 08:01:27;;;;;;;12.57;2.72;;;13.70;1.00;;;15.05;48.97;99643.44;5059930;27;119947;-66
2022/09/07 08:03:58;;;;;;;5.30;1.90;;;13.70;1.00;;;15.15;47.99;99635.94;5060421;27;119456;-70
2022/09/07 08:06:26;;;;;;;11.13;3.50;;;13.70;1.00;;;15.14;49.21;99631.59;5059997;27;130222;-68
2022/09/07 08:08:56;;;;;;;23.60;7.60;;;13.80;1.00;;;15.27;48.29;99628.56;5059893;27;129494;-66
2022/09/07 08:11:25;;;;;;;10.00;2.65;;;14.10;1.00;;;15.43;47.98;99612.25;5058952;27;122689;-69
2022/09/07 08:13:58;;;;;;;13.05;2.30;;;14.00;1.00;;;15.46;47.30;99625.25;5060249;27;122019;-70
2022/09/07 08:16:29;;;;;;;8.27;1.65;;;14.10;1.00;;;15.29;47.33;99620.00;5062701;27;130029;-65
2022/09/07 08:19:00;;;;;;;5.40;1.67;;;13.80;1.00;;;15.36;47.18;99609.28;5059796;27;129654;-67
2022/09/07 08:21:29;;;;;;;10.63;4.13;;;13.70;1.00;;;15.43;47.28;99604.06;5060101;27;119312;-68
2022/09/07 08:23:58;;;;;;;10.82;2.28;;;14.30;1.00;;;15.61;47.44;99609.28;5060149;27;119548;-67
2022/09/07 08:26:27;;;;;;;6.32;2.40;;;14.30;1.00;;;15.62;47.45;99603.47;5062680;27;130511;-69
2022/09/07 08:28:56;;;;;;;12.68;2.28;;;14.30;1.00;;;15.62;46.13;99606.22;5063597;27;129901;-68
2022/09/07 08:31:24;;;;;;;9.20;3.78;;;14.20;1.00;;;15.48;46.59;99599.50;5063605;27;119938;-68
2022/09/07 08:33:52;;;;;;;9.05;1.85;;;14.40;1.00;;;15.76;46.26;99589.44;5066269;27;120299;-68
2022/09/07 08:36:22;;;;;;;16.20;3.47;;;14.20;1.00;;;15.74;47.17;99586.28;5062264;27;130116;-68
2022/09/07 08:38:51;;;;;;;11.73;4.28;;;14.50;1.00;;;15.78;46.80;99583.66;5063072;27;130818;-70
2022/09/07 08:41:45;;;;;;;6.38;1.95;;;14.60;1.00;;;15.70;46.27;99590.81;5063153;27;119332;-69
2022/09/07 08:44:22;;;;;;;8.20;1.98;;;14.20;1.00;;;15.80;45.19;99584.94;5063315;27;119606;-67
2022/09/07 08:46:56;;;;;;;9.25;2.45;;;14.40;1.00;;;15.80;45.33;99587.66;5062997;27;129657;-67
2022/09/07 08:49:36;;;;;;;8.15;1.85;;;14.30;1.00;;;15.73;45.61;99573.72;5062973;27;129575;-68
2022/09/07 08:52:14;;;;;;;7.53;2.55;;;14.40;1.00;;;15.75;45.17;99570.66;5063261;27;119737;-69
2022/09/07 08:54:49;;;;;;;5.72;1.88;;;14.30;1.00;;;15.68;44.46;99564.97;5063636;27;119678;-68
2022/09/07 08:57:27;;;;;;;6.45;2.10;;;14.20;1.00;;;15.87;44.90;99565.19;5062944;27;130076;-67
2022/09/07 09:00:04;;;;;;;5.72;1.77;;;14.50;1.00;;;16.00;44.87;99560.47;5062878;27;130124;-68
2022/09/07 09:02:34;;;;;;;3.83;1.58;;;14.40;1.00;;;15.86;45.42;99554.59;5043413;27;122137;-70
2022/09/07 09:05:04;;;;;;;12.82;2.10;;;14.20;1.00;;;15.96;45.71;99548.63;5064573;27;122013;-67
2022/09/07 09:07:44;;;;;;;10.43;6.80;;;14.50;1.00;;;15.98;44.93;99541.66;5062639;27;129542;-69
2022/09/07 09:10:22;;;;;;;15.23;10.40;;;14.90;1.00;;;16.12;44.43;99546.75;5047611;27;129168;-66
2022/09/07 09:13:05;;;;;;;4.65;1.77;;;15.00;1.00;;;16.13;44.19;99542.88;5062895;27;120102;-66
2022/09/07 09:16:00;;;;;;;5.28;1.95;;;14.50;1.00;;;15.95;44.92;99553.28;5047581;27;119168;-70
2022/09/07 09:18:53;;;;;;;7.53;2.97;;;14.40;1.00;;;16.10;45.81;99531.84;5047459;27;128944;-69
2022/09/07 09:21:23;;;;;;;4.32;2.20;;;14.60;1.00;;;16.18;45.69;99531.66;5062786;27;130662;-65
2022/09/07 09:24:00;;;;;;;6.05;2.60;;;14.70;1.00;;;16.34;44.93;99525.44;5044441;27;120065;-65
2022/09/07 09:26:31;;;;;;;8.07;2.00;;;15.00;1.00;;;16.25;45.92;99522.88;5062790;27;119373;-68
2022/09/07 09:29:13;;;;;;;13.38;2.80;;;14.60;1.00;;;16.36;45.74;99534.09;5061330;27;129746;-67
2022/09/07 09:31:42;;;;;;;8.70;2.15;;;15.00;1.00;;;16.29;45.21;99517.50;5062098;27;129569;-66
2022/09/07 09:34:13;;;;;;;8.55;1.80;;;14.90;1.00;;;16.45;44.80;99518.31;5062605;27;119599;-68
2022/09/07 09:36:47;;;;;;;10.20;1.88;;;14.90;1.00;;;16.54;44.44;99513.47;5062046;27;120475;-69
2022/09/07 09:39:32;;;;;;;11.52;1.98;;;14.90;1.00;;;16.74;44.08;99510.84;5062087;27;130539;-69
2022/09/07 09:42:15;;;;;;;7.03;3.10;;;15.10;1.00;;;17.03;44.16;99512.41;5062142;27;129866;-67
2022/09/07 09:44:44;;;;;;;7.65;1.80;;;15.70;1.00;;;16.91;43.47;99508.94;5062639;27;119651;-70
2022/09/07 09:47:29;;;;;;;19.08;2.50;;;15.20;1.00;;;17.07;43.84;99512.47;5062848;27;119376;-70
2022/09/07 09:50:02;;;;;;;4.35;1.80;;;15.50;1.00;;;16.85;43.79;99509.16;5062135;27;129881;-69
2022/09/07 09:52:35;;;;;;;2.70;1.52;;;15.50;1.00;;;16.50;44.71;99512.59;5062156;27;129219;-72
2022/09/07 09:55:06;;;;;;;5.68;2.92;;;15.40;1.00;;;16.67;44.26;99510.66;5061009;27;122396;-69
2022/09/07 09:57:51;;;;;;;6.50;1.58;;;15.40;1.00;;;16.91;43.03;99508.94;5047066;27;121695;-71
2022/09/07 10:00:23;;;;;;;3.08;1.55;;;15.70;1.00;;;17.04;42.47;99513.19;5061878;27;129842;-65
2022/09/07 10:03:17;;;;;;;5.25;1.60;;;15.60;1.00;;;16.91;42.42;99514.41;5061897;27;129544;-66
2022/09/07 10:05:47;;;;;;;12.75;2.30;;;15.30;1.00;;;17.12;41.71;99509.44;5064943;27;119260;-66
2022/09/07 10:08:20;;;;;;;8.13;1.83;;;15.70;1.00;;;17.11;40.88;99518.03;5062059;27;120090;-68
2022/09/07 10:10:59;;;;;;;6.30;1.85;;;15.70;1.00;;;17.09;41.04;99501.16;5061797;27;129678;-69
2022/09/07 10:13:34;;;;;;;5.07;1.67;;;15.70;1.00;;;17.33;40.89;99508.38;5062191;27;130127;-65
2022/09/07 10:16:05;;;;;;;7.70;2.33;;;16.00;1.00;;;17.24;41.08;99512.09;5064950;27;119357;-67
2022/09/07 10:18:37;;;;;;;14.52;3.20;;;15.70;1.00;;;17.16;41.96;99499.38;5061979;27;119312;-69
2022/09/07 10:21:21;;;;;;;5.80;1.80;;;15.70;1.00;;;17.25;41.54;99502.72;5041780;27;130219;-70
2022/09/07 10:23:57;;;;;;;5.78;1.65;;;15.80;1.00;;;17.20;41.26;99504.94;5061602;27;129525;-70
2022/09/07 10:26:35;;;;;;;;;;;15.50;1.00;;;17.19;41.68;99498.66;5062173;27;119728;-67
2022/09/07 10:29:08;;;;;;;;;;;15.80;1.00;;;16.81;41.90;99500.09;5062548;27;119539;-68
2022/09/07 10:32:03;;;;;;;10.30;2.28;;;15.50;1.00;;;17.00;41.08;99502.13;5061962;27;130551;-67
2022/09/07 10:34:44;;;;;;;5.20;1.80;;;15.70;1.00;;;17.30;40.43;99492.66;5061513;27;129420;-70
2022/09/07 10:37:20;;;;;;;6.88;2.28;;;16.00;1.00;;;17.13;40.56;99486.38;5046418;27;119484;-68
2022/09/07 10:40:04;;;;;;;9.23;4.53;;;15.90;1.00;;;17.28;39.91;99490.25;5046385;27;119993;-71
2022/09/07 10:42:39;;;;;;;6.53;1.52;;;16.10;1.00;;;16.96;39.56;99489.50;5042809;27;130110;-68